Time;durP1;ratioP1;P1;durP2;ratioP2;P2;SDS_P1;SDS_P2;PMS_P1;PMS_P2;Temp;Humidity;BMP_temperature;BMP_pressure;BME280_temperature;BME280_humidity;BME280_pressure;Samples;Min_cycle;Max_cycle;Signal;HPM_P1;HPM_P2
2022/06/13 00:00:23;;;;;;;5.25;1.77;;;;;;;17.62;46.61;101034.25;7398486;19;20466;-67
2022/06/13 00:02:52;;;;;;;3.03;1.10;;;;;;;17.60;47.25;101030.81;7396062;19;20018;-68
2022/06/13 00:05:24;;;;;;;5.30;1.30;;;;;;;17.58;47.52;101022.91;7396032;19;20032;-67
2022/06/13 00:07:52;;;;;;;5.22;1.80;;;;;;;17.56;47.81;101030.06;7397972;19;20011;-67
2022/06/13 00:10:27;;;;;;;8.73;2.05;;;;;;;17.53;48.88;101029.38;7395593;19;20093;-67
2022/06/13 00:12:55;;;;;;;4.22;1.50;;;;;;;17.51;48.52;101026.78;7395351;19;20388;-67
2022/06/13 00:15:24;;;;;;;7.80;1.80;;;;;;;17.47;48.81;101034.97;7395765;19;20014;-67
2022/06/13 00:17:52;;;;;;;6.25;1.63;;;;;;;17.47;49.06;101037.63;7397398;19;20032;-67
2022/06/13 00:20:23;;;;;;;3.22;1.30;;;;;;;17.45;49.39;101031.50;7395773;19;20026;-67
2022/06/13 00:22:52;;;;;;;5.68;1.58;;;;;;;17.43;49.64;101024.47;7395586;19;20023;-67
2022/06/13 00:25:21;;;;;;;9.65;2.10;;;;;;;17.43;50.02;101035.09;7396839;19;20031;-68
2022/06/13 00:27:49;;;;;;;6.03;1.70;;;;;;;17.41;50.06;101026.38;7395149;19;20018;-67
2022/06/13 00:30:18;;;;;;;4.90;1.60;;;;;;;17.40;50.37;101029.94;7395075;19;20022;-67
2022/06/13 00:32:46;;;;;;;4.43;1.30;;;;;;;17.39;50.46;101030.88;7395742;19;20018;-67
2022/06/13 00:35:15;;;;;;;4.57;1.35;;;;;;;17.35;50.85;101029.28;7396981;19;20035;-67
2022/06/13 00:37:46;;;;;;;6.50;1.45;;;;;;;17.31;51.14;101029.50;7396471;19;20015;-68
2022/06/13 00:40:22;;;;;;;5.20;1.52;;;;;;;17.26;51.25;101027.91;7394741;19;20359;-67
2022/06/13 00:43:05;;;;;;;6.32;1.50;;;;;;;17.23;51.84;101019.25;7394215;19;20411;-68
2022/06/13 00:45:36;;;;;;;6.85;1.75;;;;;;;17.17;51.93;101014.22;7396310;19;20015;-67
2022/06/13 00:48:06;;;;;;;5.95;1.45;;;;;;;17.17;51.75;101022.16;7397001;19;20027;-67
2022/06/13 00:50:37;;;;;;;6.57;1.63;;;;;;;17.13;51.96;101024.09;7396490;19;20022;-67
2022/06/13 00:53:11;;;;;;;7.20;1.70;;;;;;;17.10;52.69;101026.88;7397130;19;20031;-68
2022/06/13 00:55:41;;;;;;;;;;;;;;;17.07;53.81;101041.16;7396816;19;20011;-68
2022/06/13 00:58:12;;;;;;;3.50;1.30;;;;;;;17.05;52.33;101029.75;7395370;19;19931;-68
2022/06/13 01:00:43;;;;;;;4.55;1.20;;;;;;;17.04;52.55;101043.06;7394946;19;20022;-67
2022/06/13 01:03:13;;;;;;;5.45;1.40;;;;;;;17.01;52.69;101038.75;7394296;19;20360;-67
2022/06/13 01:05:46;;;;;;;8.05;1.95;;;;;;;17.01;52.55;101044.06;7396507;19;20014;-67
2022/06/13 01:08:18;;;;;;;4.28;1.55;;;;;;;17.01;52.83;101043.19;7398795;19;20014;-67
2022/06/13 01:13:43;;;;;;;5.50;1.38;;;;;;;16.97;54.02;101053.06;7396633;19;20010;-67
2022/06/13 01:16:25;;;;;;;3.97;1.40;;;;;;;16.92;54.13;101050.63;7395973;19;20018;-67
2022/06/13 01:19:14;;;;;;;7.78;1.88;;;;;;;16.89;53.88;101041.91;7394694;19;20505;-67
2022/06/13 01:21:55;;;;;;;8.88;1.58;;;;;;;16.88;54.06;101035.75;7394832;19;20103;-67
2022/06/13 01:24:57;;;;;;;4.13;1.65;;;;;;;16.88;54.53;101038.41;7393597;19;20010;-68
2022/06/13 01:28:03;;;;;;;5.20;1.40;;;;;;;16.86;55.38;101042.91;7396083;19;20131;-67
2022/06/13 01:30:55;;;;;;;4.90;1.83;;;;;;;16.80;54.78;101040.53;7395170;19;20021;-67
2022/06/13 01:33:33;;;;;;;12.95;1.98;;;;;;;16.76;54.73;101036.28;7393576;19;20022;-67
2022/06/13 01:36:20;;;;;;;5.10;1.40;;;;;;;16.73;55.21;101039.94;7394898;19;20011;-67
2022/06/13 01:39:01;;;;;;;5.50;1.50;;;;;;;16.70;55.90;101033.91;7405535;19;20031;-67
2022/06/13 01:41:36;;;;;;;4.88;1.55;;;;;;;16.70;55.93;101039.19;7408650;19;20521;-67
2022/06/13 01:44:13;;;;;;;6.18;1.90;;;;;;;16.68;55.46;101041.03;7407325;19;20014;-67
2022/06/13 01:46:55;;;;;;;5.10;1.90;;;;;;;16.66;56.38;101045.56;7409297;19;20019;-67
2022/06/13 01:49:30;;;;;;;6.47;1.75;;;;;;;16.59;55.75;101037.00;7407031;19;20513;-67
2022/06/13 01:52:03;;;;;;;7.18;1.98;;;;;;;16.54;56.16;101039.84;7408552;19;20023;-67
2022/06/13 01:54:41;;;;;;;4.72;1.50;;;;;;;16.52;56.06;101043.50;7409261;19;20023;-68
2022/06/13 01:57:19;;;;;;;6.07;1.95;;;;;;;16.48;56.35;101041.88;7408996;19;20007;-67
2022/06/13 01:59:54;;;;;;;5.20;1.75;;;;;;;16.42;56.90;101043.00;7408267;19;20022;-67
2022/06/13 02:02:33;;;;;;;5.97;1.63;;;;;;;16.40;57.25;101043.06;7407954;19;20022;-67
2022/06/13 02:05:07;;;;;;;5.07;1.83;;;;;;;16.37;56.74;101047.63;7409124;19;20019;-67
2022/06/13 02:07:41;;;;;;;8.20;2.08;;;;;;;16.33;56.96;101052.19;7409534;19;20484;-68
2022/06/13 02:10:14;;;;;;;5.90;1.52;;;;;;;16.29;57.35;101047.94;7409922;19;20022;-68
2022/06/13 02:12:48;;;;;;;4.50;1.63;;;;;;;16.23;57.58;101045.56;7407846;19;20041;-69
2022/06/13 02:15:21;;;;;;;4.43;1.50;;;;;;;16.24;58.35;101063.16;7406834;19;20022;-68
2022/06/13 02:17:57;;;;;;;6.72;1.65;;;;;;;16.21;57.64;101060.63;7405950;19;20014;-68
2022/06/13 02:20:29;;;;;;;4.65;1.50;;;;;;;16.18;57.84;101058.13;7406911;19;20014;-68
2022/06/13 02:23:00;;;;;;;8.38;2.20;;;;;;;16.14;58.16;101062.66;7406054;19;20364;-68
2022/06/13 02:25:34;;;;;;;7.97;2.22;;;;;;;16.08;58.76;101055.81;7408236;19;20014;-68
2022/06/13 02:28:10;;;;;;;6.82;2.10;;;;;;;16.02;59.96;101065.78;7407688;19;20015;-68
2022/06/13 02:30:42;;;;;;;7.18;2.20;;;;;;;15.98;58.73;101053.63;7405460;19;20427;-68
2022/06/13 02:33:18;;;;;;;6.38;2.65;;;;;;;15.92;59.16;101055.59;7405243;19;20040;-68
2022/06/13 02:35:52;;;;;;;6.40;1.70;;;;;;;15.90;59.03;101057.41;7405611;19;20019;-68
2022/06/13 02:38:27;;;;;;;4.30;1.92;;;;;;;15.88;59.27;101063.69;7407563;19;20018;-67
2022/06/13 02:40:59;;;;;;;5.03;1.83;;;;;;;15.86;59.35;101069.03;7405173;19;20431;-66
2022/06/13 02:43:34;;;;;;;4.78;1.80;;;;;;;15.80;60.14;101070.09;7404854;19;20023;-67
2022/06/13 02:46:07;;;;;;;6.63;2.22;;;;;;;15.73;61.20;101055.41;7407087;19;20011;-67
2022/06/13 02:48:46;;;;;;;7.50;2.30;;;;;;;15.69;60.91;101048.47;7404127;19;20023;-67
2022/06/13 02:51:24;;;;;;;6.65;1.83;;;;;;;15.64;60.81;101042.50;7400695;19;20019;-67
2022/06/13 02:54:00;;;;;;;4.38;1.67;;;;;;;15.58;61.19;101043.63;7397710;19;20375;-66
2022/06/13 02:56:37;;;;;;;7.70;2.17;;;;;;;15.55;62.27;101056.09;7400773;19;20018;-67
2022/06/13 02:59:16;;;;;;;6.68;1.98;;;;;;;15.51;62.13;101049.19;7398327;19;20027;-67
2022/06/13 03:01:50;;;;;;;7.93;2.33;;;;;;;15.44;62.18;101056.47;7399793;19;20357;-66
2022/06/13 03:04:31;;;;;;;7.07;2.53;;;;;;;15.40;63.44;101055.72;7400255;19;20387;-67
2022/06/13 03:07:07;;;;;;;7.43;2.05;;;;;;;15.36;62.43;101054.13;7400607;19;20027;-67
2022/06/13 03:09:42;;;;;;;6.22;2.10;;;;;;;15.32;62.60;101056.00;7400492;19;20022;-67
2022/06/13 03:12:18;;;;;;;4.18;1.92;;;;;;;15.28;64.10;101059.69;7397612;19;20014;-67
2022/06/13 03:14:57;;;;;;;8.00;2.15;;;;;;;15.26;63.92;101066.81;7397637;19;20023;-67
2022/06/13 03:17:33;;;;;;;9.55;2.60;;;;;;;15.21;64.12;101076.69;7397748;19;20031;-67
2022/06/13 03:20:12;;;;;;;8.40;2.10;;;;;;;15.14;65.70;101089.25;7397760;19;20073;-67
2022/06/13 03:22:48;;;;;;;10.05;2.15;;;;;;;15.11;65.14;101083.22;7397365;19;20029;-67
2022/06/13 03:25:23;;;;;;;5.50;2.17;;;;;;;15.09;65.15;101078.00;7399067;19;20040;-67
2022/06/13 03:27:57;;;;;;;6.97;2.88;;;;;;;15.03;66.14;101074.72;7398842;19;20488;-67
2022/06/13 03:30:29;;;;;;;6.55;2.40;;;;;;;15.01;65.24;101069.47;7396505;19;20021;-67
2022/06/13 03:35:48;;;;;;;5.78;2.75;;;;;;;14.98;65.58;101081.00;7398714;19;20082;-66
2022/06/13 03:38:24;;;;;;;6.78;2.67;;;;;;;14.99;65.42;101081.88;7395500;19;20488;-67
2022/06/13 03:40:56;;;;;;;4.50;1.88;;;;;;;14.97;65.87;101092.50;7396095;19;20014;-68
2022/06/13 03:43:47;;;;;;;7.50;2.25;;;;;;;14.98;65.71;101081.00;7395728;19;20376;-67
2022/06/13 03:46:21;;;;;;;8.02;2.20;;;;;;;14.98;64.94;101086.28;7398406;19;20414;-67
2022/06/13 03:48:57;;;;;;;6.28;2.13;;;;;;;15.00;64.82;101091.53;7398953;19;20074;-67
2022/06/13 03:51:34;;;;;;;6.20;2.30;;;;;;;15.01;64.70;101087.94;7397531;19;20373;-67
2022/06/13 03:54:09;;;;;;;7.40;2.20;;;;;;;15.06;64.39;101093.09;7395569;19;20492;-67
2022/06/13 03:56:44;;;;;;;4.88;2.13;;;;;;;15.10;63.96;101090.28;7397900;19;20027;-67
2022/06/13 03:59:17;;;;;;;5.63;2.08;;;;;;;15.17;63.70;101092.72;7398231;19;20035;-67
2022/06/13 04:01:49;;;;;;;8.68;2.45;;;;;;;15.20;63.83;101089.97;7395776;19;20014;-68
2022/06/13 04:04:24;;;;;;;6.90;2.25;;;;;;;15.22;63.76;101094.28;7395374;19;20018;-67
2022/06/13 04:06:56;;;;;;;4.60;2.08;;;;;;;15.22;64.23;101096.06;7394965;19;20414;-68
2022/06/13 04:09:28;;;;;;;5.07;2.45;;;;;;;15.21;64.25;101094.34;7395559;19;20014;-67
2022/06/13 04:12:22;;;;;;;6.18;2.70;;;;;;;15.18;63.92;101087.38;7396988;19;20024;-67
2022/06/13 04:15:22;;;;;;;8.20;2.67;;;;;;;15.17;63.94;101087.44;7395996;19;20018;-67
2022/06/13 04:18:02;;;;;;;5.18;2.50;;;;;;;15.17;63.66;101090.09;7394931;19;20081;-67
2022/06/13 04:20:52;;;;;;;7.70;2.50;;;;;;;15.16;63.77;101097.13;7396004;19;20018;-67
2022/06/13 04:23:35;;;;;;;6.75;2.80;;;;;;;15.12;64.14;101095.53;7394838;19;20015;-68
2022/06/13 04:26:12;;;;;;;7.65;2.47;;;;;;;15.10;63.92;101098.22;7396750;19;20015;-67
2022/06/13 04:28:47;;;;;;;5.80;3.45;;;;;;;15.06;64.26;101107.16;7397064;19;20143;-68
2022/06/13 04:31:18;;;;;;;5.47;2.17;;;;;;;15.02;64.02;101107.34;7395808;19;20022;-68
2022/06/13 04:33:52;;;;;;;9.38;3.15;;;;;;;14.97;63.92;101111.00;7393693;19;20516;-67
2022/06/13 04:36:21;;;;;;;6.85;2.63;;;;;;;14.96;63.75;101105.75;7396161;19;20017;-67
2022/06/13 04:39:00;;;;;;;6.75;2.42;;;;;;;14.97;64.16;101102.19;7396565;19;20022;-68
2022/06/13 04:41:33;;;;;;;6.75;2.80;;;;;;;14.98;63.53;101115.34;7394113;19;20498;-67
2022/06/13 04:44:06;;;;;;;10.02;2.33;;;;;;;15.00;63.45;101110.03;7395202;19;20364;-67
2022/06/13 04:46:37;;;;;;;5.20;2.30;;;;;;;15.02;63.41;101118.75;7396290;19;20006;-67
2022/06/13 04:49:12;;;;;;;7.32;2.78;;;;;;;15.01;63.37;101119.66;7394012;19;20014;-67
2022/06/13 04:51:43;;;;;;;13.68;3.55;;;;;;;15.03;63.07;101119.63;7395928;19;20031;-67
2022/06/13 04:54:23;;;;;;;5.53;2.10;;;;;;;15.05;62.87;101123.94;7393599;19;20019;-69
2022/06/13 04:56:53;;;;;;;7.30;2.35;;;;;;;15.06;62.49;101119.50;7394769;19;20020;-68
2022/06/13 04:59:21;;;;;;;6.43;2.10;;;;;;;15.08;62.65;101123.81;7393098;19;20029;-68
2022/06/13 05:01:52;;;;;;;5.93;2.28;;;;;;;15.11;62.63;101128.13;7393192;19;20027;-68
2022/06/13 05:04:24;;;;;;;7.25;2.33;;;;;;;15.17;62.27;101129.72;7394831;19;20484;-68
2022/06/13 05:06:55;;;;;;;13.45;3.78;;;;;;;15.21;62.36;101133.97;7393375;19;20011;-68
2022/06/13 05:09:29;;;;;;;9.35;2.67;;;;;;;15.18;61.89;101134.06;7393837;19;20437;-68
2022/06/13 05:12:06;;;;;;;6.65;2.38;;;;;;;15.15;62.23;101140.31;7391350;19;20014;-68
2022/06/13 05:14:39;;;;;;;7.88;3.35;;;;;;;15.12;61.60;101143.09;7394134;19;20022;-68
2022/06/13 05:17:34;;;;;;;6.75;2.63;;;;;;;15.13;61.82;101137.75;7393269;19;20115;-68
2022/06/13 05:20:09;;;;;;;5.35;2.30;;;;;;;15.17;61.66;101138.50;7394441;19;20035;-70
2022/06/13 05:22:58;;;;;;;6.97;2.53;;;;;;;15.24;61.66;101145.31;7392980;19;20018;-67
2022/06/13 05:25:43;;;;;;;6.35;2.38;;;;;;;15.31;61.03;101138.03;7394388;19;20027;-69
2022/06/13 05:28:13;;;;;;;13.85;2.50;;;;;;;15.39;60.38;101137.75;7392124;19;20489;-67
2022/06/13 05:30:43;;;;;;;7.65;2.30;;;;;;;15.48;59.80;101137.44;7394302;19;20409;-68
2022/06/13 05:33:13;;;;;;;6.55;2.25;;;;;;;15.55;59.21;101141.56;7392654;19;20015;-66
2022/06/13 05:35:45;;;;;;;4.75;2.00;;;;;;;15.58;57.12;101146.75;7393531;19;20011;-68
2022/06/13 05:38:18;;;;;;;6.75;2.10;;;;;;;15.65;57.55;101142.09;7392831;19;20513;-68
2022/06/13 05:40:49;;;;;;;12.77;2.35;;;;;;;15.68;57.05;101139.31;7392996;19;20015;-68
2022/06/13 05:43:17;;;;;;;6.30;2.05;;;;;;;15.75;57.44;101139.97;7391787;19;20024;-68
2022/06/13 05:45:46;;;;;;;7.63;2.63;;;;;;;15.80;57.10;101136.22;7393560;19;20014;-68
2022/06/13 05:48:17;;;;;;;5.07;1.90;;;;;;;15.85;56.69;101132.59;7394461;19;20450;-69
2022/06/13 05:50:46;;;;;;;6.38;2.28;;;;;;;15.92;56.70;101131.44;7395624;19;20019;-68
2022/06/13 05:53:16;;;;;;;6.43;1.60;;;;;;;15.98;56.31;101131.19;7393148;19;20530;-67
2022/06/13 05:55:46;;;;;;;6.38;1.95;;;;;;;16.03;55.97;101129.25;7394018;19;20015;-67
2022/06/13 05:58:19;;;;;;;7.25;2.25;;;;;;;16.07;55.68;101125.53;7392358;19;20015;-67
2022/06/13 06:00:50;;;;;;;7.50;2.13;;;;;;;16.12;55.76;101134.19;7393725;19;20035;-67
2022/06/13 06:03:19;;;;;;;6.85;1.85;;;;;;;16.17;54.65;101139.28;7391943;19;20023;-70
2022/06/13 06:05:48;;;;;;;5.50;2.25;;;;;;;16.16;53.26;101139.34;7393066;19;20377;-68
2022/06/13 06:08:20;;;;;;;5.53;2.38;;;;;;;16.12;51.61;101128.91;7391701;19;20039;-68
2022/06/13 06:10:52;;;;;;;22.88;2.90;;;;;;;16.11;53.01;101131.59;7394052;19;20032;-67
2022/06/13 06:13:23;;;;;;;4.68;1.63;;;;;;;16.12;52.14;101130.66;7391338;19;20031;-67
2022/06/13 06:15:52;;;;;;;6.45;2.25;;;;;;;16.12;51.92;101157.13;7392018;19;20422;-68
2022/06/13 06:18:22;;;;;;;6.38;1.92;;;;;;;16.16;52.44;101149.94;7393615;19;20031;-68
2022/06/13 06:20:51;;;;;;;5.10;2.05;;;;;;;16.21;52.47;101150.63;7390907;19;20031;-68
2022/06/13 06:23:20;;;;;;;4.18;1.90;;;;;;;16.22;51.95;101169.09;7390116;19;20051;-69
2022/06/13 06:25:55;;;;;;;7.53;2.15;;;;;;;16.24;52.04;101174.34;7397876;19;20031;-67
2022/06/13 06:28:28;;;;;;;4.43;1.92;;;;;;;16.26;52.47;101160.13;7397429;19;20035;-67
2022/06/13 06:30:58;;;;;;;5.28;1.80;;;;;;;16.33;52.38;101157.22;7400037;19;20383;-67
2022/06/13 06:33:26;;;;;;;11.23;2.47;;;;;;;16.42;52.44;101163.03;7397538;19;20014;-68
2022/06/13 06:35:56;;;;;;;7.05;1.98;;;;;;;16.52;51.84;101173.28;7399453;19;20019;-68
2022/06/13 06:38:26;;;;;;;8.27;2.22;;;;;;;16.60;51.75;101168.50;7400193;19;20034;-67
2022/06/13 06:40:55;;;;;;;5.40;1.85;;;;;;;16.67;50.43;101164.69;7397581;19;20010;-69
2022/06/13 06:43:33;;;;;;;4.60;2.03;;;;;;;16.70;48.57;101174.31;7397083;19;20014;-69
2022/06/13 06:46:02;;;;;;;9.88;2.70;;;;;;;16.76;49.99;101159.00;7398604;19;20015;-69
2022/06/13 06:48:30;;;;;;;9.93;2.30;;;;;;;16.80;49.10;101162.41;7397460;19;20014;-69
2022/06/13 06:50:59;;;;;;;5.95;1.83;;;;;;;16.89;49.47;101162.00;7397766;19;20047;-68
2022/06/13 06:59:53;;;;;;;11.75;2.25;;;;;;;16.99;48.82;101169.63;7397545;19;20036;-67
2022/06/13 07:01:42;;;;;;;5.95;2.10;;;;;;;17.10;46.99;101162.09;7397792;19;20021;-67
2022/06/13 07:04:10;;;;;;;6.10;1.80;;;;;;;17.18;46.58;101161.75;7399203;19;20023;-68
2022/06/13 07:06:39;;;;;;;7.20;1.50;;;;;;;17.26;46.19;101160.50;7399156;19;20018;-68
2022/06/13 07:09:07;;;;;;;6.93;1.98;;;;;;;17.34;45.25;101151.31;7399306;19;20078;-69
2022/06/13 07:14:20;;;;;;;4.90;1.77;;;;;;;17.37;44.66;101149.41;7399754;19;20355;-68
2022/06/13 07:16:49;;;;;;;6.25;1.85;;;;;;;17.42;44.83;101150.06;7398843;19;20488;-68
2022/06/13 07:19:18;;;;;;;15.27;4.10;;;;;;;17.44;43.14;101157.97;7398878;19;20014;-68
2022/06/13 07:21:46;;;;;;;9.93;2.65;;;;;;;17.49;43.85;101144.50;7395895;19;20023;-67
2022/06/13 07:24:15;;;;;;;4.88;1.50;;;;;;;17.53;43.99;101135.50;7398563;19;20025;-68
2022/06/13 07:26:44;;;;;;;6.90;2.72;;;;;;;17.57;44.13;101137.06;7398838;19;20014;-68
2022/06/13 07:29:13;;;;;;;25.70;3.25;;;;;;;17.59;44.12;101137.84;7396320;19;20014;-67
2022/06/13 07:31:47;;;;;;;16.83;3.05;;;;;;;17.62;44.21;101145.69;7397904;19;20019;-67
2022/06/13 07:34:17;;;;;;;12.90;2.45;;;;;;;17.63;44.29;101152.72;7398511;19;20505;-68
2022/06/13 07:36:47;;;;;;;5.55;2.05;;;;;;;17.62;44.53;101144.84;7394232;19;20377;-68
2022/06/13 07:39:16;;;;;;;5.53;1.80;;;;;;;17.64;44.55;101142.94;7396317;19;20022;-67
2022/06/13 07:41:45;;;;;;;9.15;2.65;;;;;;;17.66;44.14;101139.28;7396515;19;20018;-68
2022/06/13 07:44:19;;;;;;;6.35;2.08;;;;;;;17.65;44.22;101145.53;7395547;19;20014;-68
2022/06/13 07:46:50;;;;;;;7.47;2.22;;;;;;;17.63;43.22;101150.06;7399753;19;20028;-67
2022/06/13 07:49:19;;;;;;;9.57;2.63;;;;;;;17.59;43.53;101152.00;7398496;19;20014;-68
2022/06/13 07:51:48;;;;;;;29.77;3.53;;;;;;;17.60;43.78;101147.53;7395763;19;20018;-68
2022/06/13 07:54:17;;;;;;;8.50;1.98;;;;;;;17.65;43.58;101153.47;7397921;19;20028;-69
2022/06/13 07:56:46;;;;;;;4.05;2.00;;;;;;;17.69;43.53;101154.22;7396011;19;20436;-68
2022/06/13 07:59:17;;;;;;;9.38;2.42;;;;;;;17.74;43.51;101155.75;7395550;19;20027;-66
2022/06/13 08:01:46;;;;;;;33.55;5.00;;;;;;;17.79;43.34;101152.00;7394773;19;20018;-66
2022/06/13 08:04:17;;;;;;;7.38;2.78;;;;;;;17.81;43.56;101155.47;7397362;19;20023;-68
2022/06/13 08:06:46;;;;;;;7.78;2.95;;;;;;;17.87;43.69;101155.19;7397930;19;20014;-67
2022/06/13 08:09:14;;;;;;;12.65;2.55;;;;;;;17.89;43.71;101159.50;7396879;19;20022;-68
2022/06/13 08:11:50;;;;;;;7.13;1.98;;;;;;;17.89;41.27;101164.81;7395637;19;20039;-68
2022/06/13 08:14:19;;;;;;;4.80;1.83;;;;;;;17.81;39.75;101179.34;7395288;19;20485;-68
2022/06/13 08:16:48;;;;;;;6.35;1.70;;;;;;;17.69;39.98;101173.66;7395432;19;20010;-68
2022/06/13 08:19:19;;;;;;;5.65;1.60;;;;;;;17.61;39.53;101183.75;7394825;19;20018;-68
2022/06/13 08:21:47;;;;;;;6.15;1.90;;;;;;;17.52;39.22;101194.78;7395704;19;20082;-68
2022/06/13 08:24:16;;;;;;;6.70;1.50;;;;;;;17.43;40.22;101188.06;7396550;19;20015;-68
2022/06/13 08:26:46;;;;;;;7.78;2.10;;;;;;;17.30;39.86;101198.34;7394529;19;20031;-68
2022/06/13 08:29:14;;;;;;;6.55;2.30;;;;;;;17.23;40.56;101181.81;7394655;19;20040;-67
2022/06/13 08:31:43;;;;;;;5.68;1.67;;;;;;;17.18;40.30;101190.91;7395183;19;20082;-67
2022/06/13 08:34:11;;;;;;;9.57;2.45;;;;;;;17.14;39.88;101194.63;7396245;19;20027;-68
2022/06/13 08:36:42;;;;;;;5.45;1.83;;;;;;;17.08;40.51;101206.34;7394258;19;20019;-68
2022/06/13 08:39:11;;;;;;;6.47;2.30;;;;;;;17.08;40.49;101191.28;7394711;19;20375;-69
2022/06/13 08:41:46;;;;;;;8.32;2.45;;;;;;;17.07;40.31;101176.34;7394631;19;20025;-69
2022/06/13 08:44:49;;;;;;;6.38;1.95;;;;;;;17.05;40.84;101178.19;7395713;19;20375;-68
2022/06/13 08:47:27;;;;;;;6.43;1.80;;;;;;;17.12;40.93;101183.22;7395969;19;20026;-68
2022/06/13 08:50:04;;;;;;;7.10;2.08;;;;;;;17.18;41.28;101177.66;7396459;19;20025;-68
2022/06/13 08:52:40;;;;;;;4.72;1.70;;;;;;;17.21;41.20;101188.13;7395085;19;20018;-67
2022/06/13 08:55:13;;;;;;;13.85;2.90;;;;;;;17.25;41.51;101181.78;7395229;19;20014;-68
2022/06/13 08:57:46;;;;;;;8.93;1.98;;;;;;;17.32;41.45;101179.72;7396110;19;20547;-68
2022/06/13 09:00:18;;;;;;;10.57;2.30;;;;;;;17.35;41.02;101183.09;7395905;19;20018;-67
2022/06/13 09:02:52;;;;;;;10.30;1.77;;;;;;;17.40;41.71;101198.81;7393450;19;20032;-67
2022/06/13 09:05:27;;;;;;;12.25;2.30;;;;;;;17.41;41.44;101196.09;7395198;19;20087;-67
2022/06/13 09:08:05;;;;;;;5.22;1.92;;;;;;;17.41;42.05;101174.88;7395644;19;20011;-67
2022/06/13 09:10:38;;;;;;;9.65;2.88;;;;;;;17.52;42.15;101181.50;7394436;19;20085;-68
2022/06/13 09:13:15;;;;;;;12.03;3.30;;;;;;;17.61;42.21;101175.78;7393863;19;20035;-68
2022/06/13 09:15:48;;;;;;;10.73;1.88;;;;;;;17.70;41.84;101183.31;7394929;19;20035;-68
2022/06/13 09:18:25;;;;;;;4.13;1.58;;;;;;;17.80;42.50;101174.97;7393054;19;20367;-66
2022/06/13 09:20:58;;;;;;;8.35;2.55;;;;;;;17.90;42.00;101165.66;7393316;19;20021;-67
2022/06/13 09:23:35;;;;;;;11.15;2.50;;;;;;;17.98;40.94;101175.94;7392359;19;20089;-68
2022/06/13 09:26:11;;;;;;;9.18;2.33;;;;;;;18.00;40.97;101174.94;7394865;19;20015;-67
2022/06/13 09:28:49;;;;;;;3.60;1.20;;;;;;;18.03;41.26;101180.13;7392652;19;20017;-68
2022/06/13 09:31:27;;;;;;;7.25;1.90;;;;;;;18.07;41.40;101184.34;7392696;19;20014;-68
2022/06/13 09:33:59;;;;;;;7.15;1.95;;;;;;;18.18;41.55;101172.38;7393934;19;20032;-68
2022/06/13 09:36:33;;;;;;;5.60;2.00;;;;;;;18.28;41.11;101170.16;7393732;19;20017;-67
2022/06/13 09:39:08;;;;;;;6.78;2.10;;;;;;;18.39;41.06;101166.03;7391488;19;20363;-68
2022/06/13 09:42:01;;;;;;;7.20;2.03;;;;;;;18.47;40.72;101157.69;7393417;19;20468;-68
2022/06/13 09:44:42;;;;;;;6.88;2.08;;;;;;;18.61;40.59;101157.03;7393578;19;20006;-69
2022/06/13 09:47:21;;;;;;;7.75;2.25;;;;;;;18.77;40.33;101158.94;7394207;19;20019;-68
2022/06/13 09:50:00;;;;;;;8.05;2.05;;;;;;;18.93;39.59;101154.63;7391677;19;20028;-67
2022/06/13 09:52:39;;;;;;;5.65;2.30;;;;;;;19.07;39.22;101153.91;7392519;19;20094;-67
2022/06/13 09:55:21;;;;;;;7.22;2.08;;;;;;;19.13;38.88;101158.03;7393797;19;20015;-67
2022/06/13 09:58:02;;;;;;;8.88;1.88;;;;;;;19.14;38.17;101160.63;7393062;19;20010;-68
2022/06/13 10:00:39;;;;;;;4.32;1.52;;;;;;;19.14;37.10;101159.78;7398088;19;20018;-66
2022/06/13 10:03:16;;;;;;;6.55;1.50;;;;;;;19.04;36.37;101173.56;7399518;19;20015;-67
2022/06/13 10:05:49;;;;;;;4.88;1.88;;;;;;;19.04;37.23;101167.34;7401403;19;20078;-67
2022/06/13 10:08:33;;;;;;;6.63;1.83;;;;;;;19.00;36.70;101145.38;7398470;19;20354;-68
2022/06/13 10:11:11;;;;;;;7.03;1.88;;;;;;;19.00;37.33;101158.66;7398044;19;20489;-68
2022/06/13 10:13:51;;;;;;;8.32;2.10;;;;;;;18.98;36.24;101154.38;7400595;19;20010;-67
2022/06/13 10:16:34;;;;;;;3.97;1.73;;;;;;;18.92;37.03;101150.22;7400968;19;20356;-67
2022/06/13 10:19:14;;;;;;;11.73;1.65;;;;;;;18.92;37.38;101144.91;7401250;19;20021;-68
2022/06/13 10:21:47;;;;;;;6.55;1.90;;;;;;;18.98;37.04;101147.25;7399224;19;20031;-67
2022/06/13 10:24:31;;;;;;;5.70;1.88;;;;;;;19.01;36.46;101157.72;7399676;19;20502;-67
2022/06/13 10:27:07;;;;;;;;;;;;;;;19.07;36.56;101161.91;7401175;19;20035;-68
2022/06/13 10:29:56;;;;;;;4.25;1.42;;;;;;;19.10;37.27;101166.19;7400162;19;20349;-68
2022/06/13 10:32:44;;;;;;;8.65;2.08;;;;;;;18.99;37.12;101156.97;7396864;19;20035;-68
2022/06/13 10:35:25;;;;;;;7.43;1.80;;;;;;;18.88;37.06;101165.44;7398200;19;20014;-67
2022/06/13 10:38:05;;;;;;;6.63;1.90;;;;;;;18.77;37.66;101193.50;7398055;19;20019;-68
2022/06/13 10:40:35;;;;;;;8.40;2.25;;;;;;;18.75;38.03;101152.84;7400983;19;20441;-68
2022/06/13 10:43:07;;;;;;;10.27;2.10;;;;;;;18.78;37.80;101147.34;7400046;19;20020;-68
2022/06/13 10:45:36;;;;;;;9.65;1.70;;;;;;;18.83;37.15;101161.28;7397315;19;20368;-68
2022/06/13 10:48:13;;;;;;;11.50;2.08;;;;;;;18.95;36.19;101149.22;7397119;19;20497;-68
2022/06/13 10:50:48;;;;;;;6.97;1.58;;;;;;;19.02;35.74;101148.81;7400448;19;20019;-68
2022/06/13 10:53:23;;;;;;;7.40;1.75;;;;;;;19.12;35.85;101151.88;7397688;19;20015;-68
2022/06/13 10:55:55;;;;;;;4.55;1.30;;;;;;;19.23;35.64;101169.09;7399343;19;20477;-68
2022/06/13 10:58:30;;;;;;;5.47;1.65;;;;;;;19.24;35.14;101158.34;7397657;19;20018;-68
2022/06/13 11:01:12;;;;;;;5.13;1.73;;;;;;;19.33;35.75;101149.03;7399439;19;20453;-68
2022/06/13 11:03:43;;;;;;;6.35;1.58;;;;;;;19.47;35.47;101146.50;7396317;19;20015;-69
2022/06/13 11:06:22;;;;;;;5.63;1.63;;;;;;;19.56;34.73;101178.91;7399568;19;20025;-67
2022/06/13 11:09:00;;;;;;;3.70;1.55;;;;;;;19.56;35.27;101160.28;7396440;19;20018;-67
2022/06/13 11:11:35;;;;;;;7.25;1.90;;;;;;;19.59;35.49;101155.66;7395892;19;20091;-67
2022/06/13 11:14:07;;;;;;;6.28;2.05;;;;;;;19.65;35.10;101146.47;7397884;19;20014;-67
2022/06/13 11:25:21;;;;;;;5.45;1.60;;;;;;;19.89;34.03;101144.34;7393754;19;20500;-68
2022/06/13 11:28:02;;;;;;;4.00;1.30;;;;;;;19.91;34.32;101136.25;7398058;19;20019;-67
2022/06/13 11:30:40;;;;;;;6.97;1.80;;;;;;;19.98;33.96;101159.81;7394935;19;20571;-68
2022/06/13 11:33:18;;;;;;;11.98;2.40;;;;;;;20.15;33.53;101136.69;7396029;19;20023;-66
2022/06/13 11:35:49;;;;;;;3.72;1.45;;;;;;;20.22;33.71;101127.44;7397971;19;20018;-68
2022/06/13 11:38:24;;;;;;;9.52;1.70;;;;;;;20.37;32.87;101130.16;7395151;19;20343;-66
2022/06/13 11:41:17;;;;;;;4.43;1.98;;;;;;;20.55;32.30;101128.22;7398438;19;20014;-67
2022/06/13 11:43:53;;;;;;;6.47;1.98;;;;;;;20.55;31.81;101122.91;7394101;19;20011;-67
2022/06/13 11:46:38;;;;;;;8.93;1.98;;;;;;;20.65;32.13;101122.28;7397190;19;20582;-68
2022/06/13 11:49:24;;;;;;;10.20;1.92;;;;;;;20.80;31.66;101143.69;7397983;19;20074;-68
2022/06/13 11:51:58;;;;;;;7.63;2.05;;;;;;;20.88;31.45;101125.44;7397263;19;20014;-68
2022/06/13 11:54:30;;;;;;;4.97;1.10;;;;;;;20.94;31.26;101129.53;7398018;19;20025;-68
2022/06/13 11:57:34;;;;;;;6.53;1.70;;;;;;;20.95;30.70;101139.28;7397271;19;20018;-68
2022/06/13 12:00:05;;;;;;;6.13;1.65;;;;;;;21.00;31.25;101150.53;7395488;19;20018;-67
2022/06/13 12:02:57;;;;;;;4.93;1.42;;;;;;;20.96;31.01;101138.31;7396156;19;20018;-67
2022/06/13 12:05:33;;;;;;;5.15;1.90;;;;;;;20.93;30.61;101128.69;7396924;19;20031;-67
2022/06/13 12:08:06;;;;;;;6.65;2.13;;;;;;;20.93;31.42;101146.53;7394865;19;20031;-67
2022/06/13 12:10:38;;;;;;;8.65;1.63;;;;;;;20.93;31.27;101131.38;7394874;19;20036;-67
2022/06/13 12:13:15;;;;;;;4.15;1.48;;;;;;;20.86;31.04;101134.50;7394454;19;20015;-68
2022/06/13 12:15:51;;;;;;;7.25;1.63;;;;;;;20.77;31.28;101131.41;7395665;19;20029;-67
2022/06/13 12:18:29;;;;;;;7.57;2.00;;;;;;;20.78;31.20;101118.94;7394787;19;20020;-67
2022/06/13 12:21:06;;;;;;;4.28;1.30;;;;;;;20.78;30.78;101129.63;7397524;19;20027;-67